Time;durP1;ratioP1;P1;durP2;ratioP2;P2;SDS_P1;SDS_P2;PMS_P1;PMS_P2;Temp;Humidity;BMP_temperature;BMP_pressure;BME280_temperature;BME280_humidity;BME280_pressure;Samples;Min_cycle;Max_cycle;Signal;HPM_P1;HPM_P2
2023/06/29 00:01:02;;;;;;;;;9.00;9.00;;;;;18.79;61.59;99945.25;5095170;28;8876;-57
2023/06/29 00:03:31;;;;;;;;;9.00;7.40;;;;;18.78;61.81;99945.41;5095748;28;9518;-59
2023/06/29 00:05:59;;;;;;;;;7.00;7.00;;;;;18.78;61.64;99951.66;5093753;28;8829;-58
2023/06/29 00:08:27;;;;;;;;;5.60;4.00;;;;;18.78;61.63;99948.09;5095425;28;8873;-59
2023/06/29 00:10:55;;;;;;;;;8.80;7.60;;;;;18.77;61.62;99939.19;5094894;28;8914;-57
2023/06/29 00:13:22;;;;;;;;;5.60;5.60;;;;;18.76;61.99;99942.88;5095525;28;9511;-57
2023/06/29 00:15:50;;;;;;;;;9.40;9.00;;;;;18.77;62.07;99941.03;5094973;28;8860;-57
2023/06/29 00:18:18;;;;;;;;;9.20;8.20;;;;;18.77;62.20;99949.13;5094773;28;8908;-59
2023/06/29 00:20:46;;;;;;;;;8.60;7.00;;;;;18.78;62.36;99943.56;5094701;28;8956;-57
2023/06/29 00:23:14;;;;;;;;;8.60;7.00;;;;;18.80;61.75;99936.13;5095333;28;8833;-57
2023/06/29 00:25:41;;;;;;;;;7.60;6.80;;;;;18.83;61.74;99949.25;5095129;28;8844;-58
2023/06/29 00:28:10;;;;;;;;;10.40;10.00;;;;;18.86;61.77;99942.69;5094656;28;8821;-57
2023/06/29 00:30:38;;;;;;;;;7.00;7.00;;;;;18.88;61.73;99929.88;5094669;28;8825;-57
2023/06/29 00:33:06;;;;;;;;;6.20;6.20;;;;;18.88;62.02;99936.09;5094626;28;8824;-59
2023/06/29 00:35:33;;;;;;;;;7.40;7.40;;;;;18.89;61.70;99937.78;5094739;28;8853;-57
2023/06/29 00:38:01;;;;;;;;;7.80;6.40;;;;;18.91;61.44;99932.22;5094722;28;8968;-57
2023/06/29 00:40:29;;;;;;;;;7.00;7.00;;;;;18.94;61.22;99929.16;5095223;28;8829;-58
2023/06/29 00:42:56;;;;;;;;;9.60;8.00;;;;;18.95;61.73;99928.97;5094743;28;8833;-57
2023/06/29 00:45:24;;;;;;;;;10.80;9.80;;;;;18.97;61.54;99931.53;5095321;28;9511;-57
2023/06/29 00:47:52;;;;;;;;;8.20;8.20;;;;;18.97;61.52;99924.25;5094848;28;8829;-58
2023/06/29 00:50:21;;;;;;;;;11.60;9.60;;;;;18.98;62.22;99923.22;5094305;28;8840;-57
2023/06/29 00:52:49;;;;;;;;;9.80;9.00;;;;;18.97;61.74;99924.25;5094766;28;8951;-58
2023/06/29 00:55:17;;;;;;;;;9.60;8.00;;;;;18.99;61.96;99927.63;5097002;28;8843;-58
2023/06/29 00:57:45;;;;;;;;;9.40;9.40;;;;;18.99;61.96;99924.94;5098131;28;8864;-57
2023/06/29 01:00:13;;;;;;;;;8.20;8.20;;;;;18.99;61.73;99924.06;5098848;28;8840;-57
2023/06/29 01:02:41;;;;;;;;;11.00;10.00;;;;;19.00;61.49;99923.06;5098564;28;8833;-58
2023/06/29 01:05:10;;;;;;;;;7.00;7.00;;;;;18.97;61.63;99918.84;5099047;28;9557;-57
2023/06/29 01:07:38;;;;;;;;;9.80;9.60;;;;;18.98;61.77;99920.53;5098872;28;8818;-57
2023/06/29 01:10:06;;;;;;;;;6.40;6.40;;;;;18.97;61.63;99920.72;5098204;28;8832;-58
2023/06/29 01:12:33;;;;;;;;;9.00;9.00;;;;;18.96;61.84;99917.16;5098717;28;8855;-57
2023/06/29 01:15:03;;;;;;;;;7.20;6.80;;;;;18.95;61.76;99918.19;5098788;28;9546;-58
2023/06/29 01:17:31;;;;;;;;;8.20;8.20;;;;;18.96;62.13;99913.66;5097293;28;8863;-58
2023/06/29 01:19:59;;;;;;;;;9.00;9.00;;;;;18.97;61.58;99907.22;5097664;28;8829;-57
2023/06/29 01:22:27;;;;;;;;;9.00;8.20;;;;;18.97;61.95;99913.44;5097425;28;8879;-57
2023/06/29 01:24:55;;;;;;;;;9.00;9.00;;;;;18.96;61.71;99908.25;5097729;28;8849;-58
2023/06/29 01:27:22;;;;;;;;;9.40;9.40;;;;;18.94;62.03;99908.41;5097342;28;8849;-59
2023/06/29 01:29:53;;;;;;;;;7.20;7.00;;;;;18.93;62.48;99906.72;5097205;28;8845;-59
2023/06/29 01:32:21;;;;;;;;;10.00;10.00;;;;;18.92;62.04;99905.06;5097717;28;8843;-59
2023/06/29 01:34:48;;;;;;;;;7.00;7.00;;;;;18.90;61.84;99904.38;5097594;28;8853;-58
2023/06/29 01:37:16;;;;;;;;;8.40;8.40;;;;;18.89;61.92;99907.25;5098147;28;8853;-57
2023/06/29 01:39:44;;;;;;;;;11.00;9.00;;;;;18.88;62.02;99901.00;5097495;28;9506;-57
2023/06/29 01:42:12;;;;;;;;;9.60;9.60;;;;;18.88;62.09;99901.00;5097722;28;8853;-57
2023/06/29 01:44:40;;;;;;;;;10.00;9.60;;;;;18.88;62.17;99898.31;5098438;28;8852;-57
2023/06/29 01:47:08;;;;;;;;;7.00;7.00;;;;;18.88;62.49;99902.88;5097191;28;8968;-59
2023/06/29 01:49:35;;;;;;;;;8.80;8.60;;;;;18.88;62.26;99894.78;5096916;28;8906;-59
2023/06/29 01:52:03;;;;;;;;;9.60;9.00;;;;;18.89;62.29;99889.19;5097756;28;9745;-56
2023/06/29 01:54:31;;;;;;;;;11.60;9.80;;;;;18.90;62.32;99895.44;5097033;28;8841;-57
2023/06/29 01:56:59;;;;;;;;;10.00;9.00;;;;;18.91;62.30;99897.13;5097290;28;8861;-57
2023/06/29 01:59:27;;;;;;;;;12.80;11.60;;;;;18.93;62.07;99885.13;5097111;28;8849;-59
2023/06/29 02:01:54;;;;;;;;;4.60;4.60;;;;;18.95;62.52;99884.94;5096878;28;8849;-58
2023/06/29 02:04:22;;;;;;;;;9.20;9.20;;;;;18.98;62.20;99888.13;5096814;28;8859;-58
2023/06/29 02:06:50;;;;;;;;;11.00;9.60;;;;;18.99;62.08;99887.13;5096715;28;8899;-59
2023/06/29 02:09:18;;;;;;;;;12.60;10.60;;;;;18.99;62.16;99881.75;5096711;28;8968;-59
2023/06/29 02:11:45;;;;;;;;;10.80;9.80;;;;;18.98;62.04;99876.50;5096836;28;8837;-59
2023/06/29 02:14:13;;;;;;;;;9.60;9.00;;;;;18.97;62.08;99867.56;5097372;28;9556;-59
2023/06/29 02:16:40;;;;;;;;;6.20;5.20;;;;;18.97;62.52;99872.13;5096123;28;8840;-58
2023/06/29 02:19:08;;;;;;;;;9.60;9.00;;;;;18.97;62.55;99875.66;5096418;28;9456;-59
2023/06/29 02:21:36;;;;;;;;;11.80;9.80;;;;;18.96;62.26;99879.38;5097550;28;8844;-59
2023/06/29 02:24:04;;;;;;;;;5.00;4.00;;;;;18.96;62.72;99876.69;5097095;28;9625;-59
2023/06/29 02:26:32;;;;;;;;;9.00;7.60;;;;;18.96;62.63;99873.97;5096537;28;8876;-58
2023/06/29 02:28:59;;;;;;;;;10.00;9.80;;;;;18.96;62.80;99867.75;5096687;28;9495;-60
2023/06/29 02:31:27;;;;;;;;;10.20;9.00;;;;;18.94;62.21;99870.63;5095884;28;8856;-59
2023/06/29 02:33:55;;;;;;;;;8.60;7.40;;;;;18.93;62.35;99877.03;5097178;28;8963;-59
2023/06/29 02:36:23;;;;;;;;;7.60;7.00;;;;;18.92;62.48;99874.50;5095873;28;8859;-59
2023/06/29 02:38:50;;;;;;;;;10.60;10.60;;;;;18.91;62.45;99881.75;5096041;28;8874;-59
2023/06/29 02:41:18;;;;;;;;;9.40;9.00;;;;;18.90;62.85;99871.16;5096455;28;8849;-58
2023/06/29 02:43:46;;;;;;;;;9.60;8.00;;;;;18.88;62.82;99865.94;5096014;28;8863;-59
2023/06/29 02:46:14;;;;;;;;;10.00;9.00;;;;;18.88;62.42;99865.94;5096329;28;8845;-60
2023/06/29 02:48:41;;;;;;;;;9.20;9.20;;;;;18.88;63.22;99865.09;5096299;28;8829;-59
2023/06/29 02:51:09;;;;;;;;;10.40;8.60;;;;;18.89;62.81;99862.19;5096501;28;8849;-60
2023/06/29 02:53:37;;;;;;;;;9.60;8.20;;;;;18.89;62.97;99855.97;5096577;28;8845;-59
2023/06/29 02:56:04;;;;;;;;;12.20;11.40;;;;;18.88;62.85;99855.13;5096061;28;8849;-60
2023/06/29 02:58:32;;;;;;;;;3.60;3.00;;;;;18.88;62.98;99857.00;5096551;28;8876;-59
2023/06/29 03:01:00;;;;;;;;;8.20;7.60;;;;;18.87;63.12;99850.75;5096002;28;8859;-57
2023/06/29 03:03:27;;;;;;;;;9.60;9.40;;;;;18.87;63.11;99844.50;5095975;28;8868;-58
2023/06/29 03:05:55;;;;;;;;;9.00;8.40;;;;;18.87;62.80;99848.06;5094879;28;8845;-57
2023/06/29 03:08:23;;;;;;;;;10.00;10.00;;;;;18.88;63.16;99843.50;5094980;28;8829;-60
2023/06/29 03:10:51;;;;;;;;;10.00;10.00;;;;;18.88;62.78;99838.13;5095699;28;8852;-59
2023/06/29 03:13:19;;;;;;;;;12.00;9.20;;;;;18.90;62.98;99844.16;5095779;28;8947;-59
2023/06/29 03:15:47;;;;;;;;;10.40;9.60;;;;;18.90;63.26;99844.16;5095737;28;8836;-59
2023/06/29 03:18:14;;;;;;;;;7.60;7.40;;;;;18.89;63.15;99843.31;5094150;28;8845;-59
2023/06/29 03:20:42;;;;;;;;;9.00;6.60;;;;;18.89;62.87;99846.00;5096059;28;8849;-58
2023/06/29 03:23:10;;;;;;;;;9.80;8.40;;;;;18.88;63.65;99838.94;5095693;28;8872;-57
2023/06/29 03:25:38;;;;;;;;;9.80;9.40;;;;;18.87;62.89;99842.66;5095667;28;8825;-56
2023/06/29 03:28:06;;;;;;;;;10.00;9.00;;;;;18.86;63.14;99832.88;5095414;28;9642;-57
2023/06/29 03:30:33;;;;;;;;;11.80;10.00;;;;;18.87;63.28;99836.41;5094636;28;8847;-57
2023/06/29 03:33:01;;;;;;;;;10.20;8.40;;;;;18.87;62.97;99837.25;5095133;28;8838;-57
2023/06/29 03:35:29;;;;;;;;;10.40;9.80;;;;;18.89;63.01;99842.50;5094670;28;8936;-58
2023/06/29 03:37:57;;;;;;;;;9.60;9.00;;;;;18.89;63.28;99840.63;5095226;28;8859;-57
2023/06/29 03:40:24;;;;;;;;;10.00;10.00;;;;;18.92;63.47;99837.59;5095343;28;8844;-57
2023/06/29 03:42:52;;;;;;;;;10.40;10.00;;;;;18.94;63.13;99831.97;5095237;28;8857;-57
2023/06/29 03:45:20;;;;;;;;;11.80;11.40;;;;;18.96;62.78;99829.97;5094856;28;8892;-57
2023/06/29 03:47:49;;;;;;;;;12.80;12.00;;;;;18.98;63.02;99830.63;5093591;28;8821;-58
2023/06/29 03:50:16;;;;;;;;;9.40;9.40;;;;;19.00;62.95;99837.53;5093491;28;8949;-57
2023/06/29 03:52:44;;;;;;;;;7.80;7.80;;;;;19.03;62.86;99834.47;5094361;28;8841;-58
2023/06/29 03:55:12;;;;;;;;;11.60;9.60;;;;;19.06;62.62;99833.28;5094586;28;8865;-57
2023/06/29 03:57:39;;;;;;;;;14.00;12.40;;;;;19.09;62.98;99836.47;5094725;28;8859;-58
2023/06/29 04:00:07;;;;;;;;;9.80;9.80;;;;;19.13;62.93;99837.75;5094659;28;8837;-57
2023/06/29 04:02:35;;;;;;;;;6.60;6.00;;;;;19.17;62.98;99840.94;5095266;28;8978;-59
2023/06/29 04:05:03;;;;;;;;;11.60;9.20;;;;;19.21;62.71;99840.44;5095150;28;8867;-57
2023/06/29 04:07:31;;;;;;;;;12.00;10.00;;;;;19.24;62.35;99826.59;5095478;28;8853;-57
2023/06/29 04:09:58;;;;;;;;;10.60;8.60;;;;;19.29;62.85;99823.34;5094643;28;8821;-59
2023/06/29 04:12:26;;;;;;;;;9.20;9.20;;;;;19.34;62.66;99829.88;5095454;28;8829;-59
2023/06/29 04:14:54;;;;;;;;;10.00;9.20;;;;;19.40;62.59;99828.31;5094906;28;8845;-57
2023/06/29 04:17:22;;;;;;;;;10.00;9.00;;;;;19.46;62.55;99827.59;5094773;28;8833;-58
2023/06/29 04:19:49;;;;;;;;;7.00;7.00;;;;;19.52;61.87;99826.88;5094473;28;8883;-57
2023/06/29 04:22:17;;;;;;;;;9.40;8.60;;;;;19.56;61.81;99812.81;5094878;28;8833;-58
2023/06/29 04:24:45;;;;;;;;;10.00;8.60;;;;;19.60;61.83;99811.47;5095028;28;8829;-57
2023/06/29 04:27:13;;;;;;;;;4.20;2.80;;;;;19.64;62.05;99810.03;5094852;28;8841;-57
2023/06/29 04:29:41;;;;;;;;;13.60;10.80;;;;;19.68;62.03;99814.09;5096145;28;8956;-57
2023/06/29 04:32:10;;;;;;;;;10.80;9.60;;;;;19.70;61.79;99809.31;5098948;28;8856;-58
2023/06/29 04:34:37;;;;;;;;;7.60;7.20;;;;;19.73;61.91;99810.81;5098472;28;8837;-57
2023/06/29 04:37:06;;;;;;;;;8.80;8.80;;;;;19.74;61.57;99816.06;5098813;28;8861;-59
2023/06/29 04:39:34;;;;;;;;;10.40;10.40;;;;;19.75;62.09;99812.31;5098475;28;8845;-57
2023/06/29 04:42:05;;;;;;;;;10.40;10.20;;;;;19.77;62.06;99806.72;5098004;28;8848;-58
2023/06/29 04:44:33;;;;;;;;;10.00;10.00;;;;;19.81;61.74;99806.16;5097538;28;8890;-57
2023/06/29 04:47:01;;;;;;;;;8.80;8.20;;;;;19.86;61.67;99814.56;5096428;28;8833;-57
2023/06/29 04:49:31;;;;;;;;;11.20;10.00;;;;;19.91;61.54;99806.75;5095211;28;8832;-57
2023/06/29 04:51:59;;;;;;;;;9.60;8.00;;;;;20.00;61.74;99810.19;5097423;28;8971;-58
2023/06/29 04:54:28;;;;;;;;;9.20;8.20;;;;;20.06;61.34;99806.78;5097325;28;8875;-57
2023/06/29 04:56:56;;;;;;;;;13.00;11.00;;;;;20.13;61.29;99803.19;5097695;28;8841;-56
2023/06/29 04:59:24;;;;;;;;;12.20;10.00;;;;;20.19;61.49;99805.09;5097179;28;8872;-58
2023/06/29 05:01:52;;;;;;;;;10.40;10.20;;;;;20.21;61.02;99800.38;5097625;28;8841;-57
2023/06/29 05:04:19;;;;;;;;;13.80;11.80;;;;;20.28;61.27;99805.88;5096691;28;8918;-58
2023/06/29 05:06:47;;;;;;;;;8.00;7.80;;;;;20.32;60.87;99799.91;5098169;28;8875;-57
2023/06/29 05:09:15;;;;;;;;;11.40;10.40;;;;;20.37;60.93;99797.47;5097878;28;8853;-58
2023/06/29 05:11:43;;;;;;;;;10.00;10.00;;;;;20.41;61.31;99796.06;5098129;28;8963;-58
2023/06/29 05:14:11;;;;;;;;;10.60;10.00;;;;;20.47;61.49;99791.78;5098445;28;8922;-57
2023/06/29 05:16:39;;;;;;;;;9.20;8.20;;;;;20.51;61.07;99790.38;5097471;28;8832;-58
2023/06/29 05:19:06;;;;;;;;;12.00;10.60;;;;;20.55;60.93;99789.78;5097517;28;8845;-58
2023/06/29 05:21:34;;;;;;;;;13.60;12.20;;;;;20.58;60.91;99789.44;5098041;28;8862;-59
2023/06/29 05:24:02;;;;;;;;;9.60;7.60;;;;;20.62;61.06;99790.72;5097876;28;8844;-57
2023/06/29 05:26:30;;;;;;;;;11.00;11.00;;;;;20.68;61.14;99789.97;5098315;28;8841;-58
2023/06/29 05:28:58;;;;;;;;;11.60;10.80;;;;;20.74;60.76;99783.78;5097454;28;9487;-58
2023/06/29 05:31:31;;;;;;;;;12.40;10.40;;;;;20.81;60.87;99782.81;5097380;28;9108;-57
2023/06/29 05:33:59;;;;;;;;;8.00;8.00;;;;;20.88;60.42;99784.81;5097449;28;9740;-57
2023/06/29 05:36:29;;;;;;;;;11.00;10.20;;;;;20.92;60.24;99788.81;5097014;28;8854;-58
2023/06/29 05:38:57;;;;;;;;;9.40;8.40;;;;;20.93;60.77;99781.34;5096885;28;8864;-57
2023/06/29 05:41:25;;;;;;;;;10.80;10.80;;;;;20.95;60.30;99773.84;5097171;28;9534;-58
2023/06/29 05:43:52;;;;;;;;;11.20;10.40;;;;;20.98;60.46;99778.06;5096595;28;8833;-59
2023/06/29 05:46:20;;;;;;;;;12.20;11.60;;;;;21.00;60.53;99775.97;5097030;28;8861;-58
2023/06/29 05:48:48;;;;;;;;;10.60;9.80;;;;;21.01;60.23;99775.81;5096253;28;8829;-57
2023/06/29 05:51:16;;;;;;;;;11.60;10.40;;;;;21.02;60.58;99769.34;5096633;28;8825;-58
2023/06/29 05:53:44;;;;;;;;;12.20;12.00;;;;;21.04;60.69;99770.00;5096932;28;8973;-60
2023/06/29 05:56:12;;;;;;;;;11.40;10.40;;;;;21.07;60.54;99768.78;5096905;28;8833;-58
2023/06/29 05:58:41;;;;;;;;;12.80;12.80;;;;;21.07;60.73;99775.03;5095756;28;8960;-58
2023/06/29 06:01:08;;;;;;;;;8.00;8.00;;;;;21.10;60.50;99773.81;5096543;28;8853;-58
2023/06/29 06:03:37;;;;;;;;;9.20;8.00;;;;;21.14;60.59;99775.09;5097160;28;8833;-58
2023/06/29 06:06:04;;;;;;;;;9.00;9.00;;;;;21.19;60.58;99772.66;5096252;28;8861;-58
2023/06/29 06:08:32;;;;;;;;;8.00;8.00;;;;;21.25;60.27;99774.59;5096139;28;8863;-58
2023/06/29 06:11:00;;;;;;;;;10.80;10.40;;;;;21.33;60.62;99774.47;5096794;28;8852;-60
2023/06/29 06:13:28;;;;;;;;;7.80;7.40;;;;;21.41;60.28;99782.44;5096005;28;9565;-58
2023/06/29 06:15:56;;;;;;;;;10.20;9.40;;;;;21.47;60.10;99782.50;5095914;28;8825;-58
2023/06/29 06:18:24;;;;;;;;;7.20;7.00;;;;;21.52;60.31;99779.19;5095659;28;8825;-57
2023/06/29 06:20:52;;;;;;;;;9.20;8.60;;;;;21.58;59.77;99773.00;5094744;28;8845;-59
2023/06/29 06:23:21;;;;;;;;;10.60;9.00;;;;;21.65;60.27;99776.59;5095957;28;8853;-58
2023/06/29 06:25:48;;;;;;;;;9.00;8.80;;;;;21.73;59.65;99779.19;5096167;28;8841;-58
2023/06/29 06:28:16;;;;;;;;;8.40;8.40;;;;;21.81;59.86;99768.22;5095401;28;8878;-57
2023/06/29 06:30:44;;;;;;;;;8.80;8.80;;;;;21.88;59.80;99779.94;5096391;28;8866;-58
2023/06/29 06:33:12;;;;;;;;;9.00;9.00;;;;;21.91;59.46;99774.09;5096109;28;8861;-58
2023/06/29 06:35:41;;;;;;;;;10.60;9.00;;;;;21.95;59.48;99765.38;5095985;28;8865;-58
2023/06/29 06:38:09;;;;;;;;;2.00;2.00;;;;;22.00;59.53;99768.34;5095211;28;8844;-58
2023/06/29 06:40:37;;;;;;;;;11.40;8.40;;;;;22.07;59.41;99774.66;5096427;28;9646;-58
2023/06/29 06:43:05;;;;;;;;;8.80;8.00;;;;;22.12;59.22;99768.63;5095272;28;8876;-57
2023/06/29 06:45:33;;;;;;;;;9.40;9.40;;;;;22.16;59.01;99778.06;5094862;28;8849;-58
2023/06/29 06:48:02;;;;;;;;;9.80;8.80;;;;;22.21;59.15;99770.97;5094083;28;8918;-58
2023/06/29 06:50:30;;;;;;;;;7.40;7.40;;;;;22.29;59.05;99772.66;5093782;28;8857;-57
2023/06/29 06:52:58;;;;;;;;;8.40;8.00;;;;;22.38;58.99;99771.50;5093590;28;8845;-59
2023/06/29 06:55:26;;;;;;;;;11.80;11.00;;;;;22.50;58.73;99767.19;5094087;28;8856;-58
2023/06/29 06:57:53;;;;;;;;;8.80;8.60;;;;;22.58;58.30;99764.28;5093228;28;8914;-59
2023/06/29 07:00:22;;;;;;;;;10.40;9.00;;;;;22.67;58.78;99758.47;5094827;28;8945;-58
2023/06/29 07:02:51;;;;;;;;;8.00;7.40;;;;;22.71;58.13;99767.06;5094351;28;8825;-60
2023/06/29 07:05:20;;;;;;;;;9.60;7.40;;;;;22.73;58.46;99765.81;5094156;28;9527;-60
2023/06/29 07:07:51;;;;;;;;;8.60;8.00;;;;;22.76;58.13;99770.00;5094103;28;8829;-60
2023/06/29 07:10:18;;;;;;;;;9.20;9.20;;;;;22.76;58.29;99768.13;5094514;28;8927;-60
2023/06/29 07:12:47;;;;;;;;;7.60;7.60;;;;;22.73;58.72;99767.69;5094163;28;8845;-60
2023/06/29 07:15:15;;;;;;;;;8.00;8.00;;;;;22.74;58.49;99772.06;5094217;28;8841;-58
2023/06/29 07:17:43;;;;;;;;;8.60;8.00;;;;;22.80;58.65;99765.84;5094750;28;8906;-58
2023/06/29 07:20:12;;;;;;;;;9.40;9.20;;;;;22.86;58.18;99762.31;5094687;28;8849;-58
2023/06/29 07:22:43;;;;;;;;;9.00;8.60;;;;;22.88;58.63;99758.34;5093605;28;8812;-59
2023/06/29 07:25:15;;;;;;;;;8.80;8.80;;;;;22.97;58.20;99758.97;5092986;28;8851;-58
2023/06/29 07:27:43;;;;;;;;;6.00;6.00;;;;;23.02;57.97;99753.78;5094846;28;8930;-58
2023/06/29 07:30:11;;;;;;;;;10.20;9.20;;;;;23.03;58.36;99750.84;5094678;28;8837;-58
2023/06/29 07:32:39;;;;;;;;;9.20;8.20;;;;;23.07;58.01;99746.66;5094678;28;8825;-58
2023/06/29 07:35:06;;;;;;;;;7.80;7.20;;;;;23.11;57.88;99744.38;5093110;28;9487;-58
2023/06/29 07:37:34;;;;;;;;;8.00;7.20;;;;;23.13;58.26;99759.44;5073457;28;9900;-58
2023/06/29 07:40:04;;;;;;;;;9.00;8.80;;;;;23.21;58.07;99745.69;5088650;28;8858;-58
2023/06/29 07:42:32;;;;;;;;;5.80;5.60;;;;;23.31;57.35;99748.00;5094881;28;9519;-60
2023/06/29 07:45:06;;;;;;;;;8.00;8.00;;;;;23.47;57.08;99753.03;5094888;28;8863;-58
2023/06/29 07:47:35;;;;;;;;;8.60;8.60;;;;;23.64;56.71;99755.13;5093622;28;8872;-60
2023/06/29 07:50:03;;;;;;;;;9.00;8.00;;;;;23.79;56.75;99747.56;5094210;28;8875;-58
2023/06/29 07:52:31;;;;;;;;;8.60;8.60;;;;;23.95;56.46;99749.03;5093385;28;8917;-58
2023/06/29 07:54:59;;;;;;;;;8.60;8.00;;;;;24.04;56.41;99750.50;5093008;28;8852;-59
2023/06/29 07:57:26;;;;;;;;;4.20;4.20;;;;;24.14;56.51;99750.88;5094645;28;8879;-58
2023/06/29 07:59:57;;;;;;;;;5.00;5.00;;;;;24.21;55.92;99747.09;5093895;28;8805;-59
2023/06/29 08:02:25;;;;;;;;;7.80;6.00;;;;;24.26;56.02;99758.19;5094194;28;8837;-59
2023/06/29 08:04:53;;;;;;;;;6.60;6.60;;;;;24.28;56.13;99747.91;5095730;28;8995;-59
2023/06/29 08:07:24;;;;;;;;;6.40;6.20;;;;;24.30;55.99;99743.09;5098309;28;8792;-58
2023/06/29 08:09:52;;;;;;;;;9.20;9.00;;;;;24.35;55.63;99746.00;5098596;28;8810;-59
2023/06/29 08:12:20;;;;;;;;;7.00;6.00;;;;;24.40;55.70;99750.78;5097709;28;8914;-58
2023/06/29 08:14:48;;;;;;;;;6.80;6.00;;;;;24.42;55.89;99749.53;5096682;28;8864;-58
2023/06/29 08:17:16;;;;;;;;;5.20;5.00;;;;;24.46;55.84;99744.50;5097510;28;8856;-58
2023/06/29 08:19:44;;;;;;;;;5.20;5.00;;;;;24.48;55.67;99747.81;5097388;28;8911;-58
2023/06/29 08:22:12;;;;;;;;;8.60;7.80;;;;;24.47;55.56;99749.72;5097706;28;8845;-59
2023/06/29 08:24:40;;;;;;;;;6.00;6.00;;;;;24.45;56.09;99751.00;5097518;28;8903;-58
2023/06/29 08:27:08;;;;;;;;;6.80;6.60;;;;;24.43;56.05;99753.09;5097389;28;8960;-60
2023/06/29 08:29:37;;;;;;;;;3.40;3.20;;;;;24.37;56.01;99748.50;5096636;28;8833;-58
2023/06/29 08:32:05;;;;;;;;;4.20;4.00;;;;;24.33;56.17;99752.69;5097017;28;8818;-59
2023/06/29 08:34:32;;;;;;;;;5.00;5.00;;;;;24.29;56.70;99748.75;5098182;28;8841;-58
2023/06/29 08:37:00;;;;;;;;;2.00;2.00;;;;;24.23;56.48;99749.59;5098333;28;8891;-59
2023/06/29 08:39:30;;;;;;;;;7.20;5.80;;;;;24.19;56.79;99749.19;5097857;28;9741;-60
2023/06/29 08:41:57;;;;;;;;;6.00;5.00;;;;;24.18;56.31;99749.41;5097206;28;8921;-58
2023/06/29 08:44:30;;;;;;;;;7.20;7.00;;;;;24.16;56.77;99754.22;5097159;28;8880;-58
2023/06/29 08:46:58;;;;;;;;;7.20;6.40;;;;;24.19;56.17;99742.94;5097173;28;8841;-58
2023/06/29 08:49:26;;;;;;;;;7.60;6.00;;;;;24.23;56.74;99742.28;5097009;28;8845;-58
2023/06/29 08:51:55;;;;;;;;;6.00;6.00;;;;;24.26;55.94;99744.56;5097079;28;8833;-58
2023/06/29 08:54:23;;;;;;;;;8.40;7.20;;;;;24.30;56.50;99739.53;5097610;28;8833;-58
2023/06/29 08:56:54;;;;;;;;;9.00;7.20;;;;;24.38;55.89;99739.28;5097612;28;8889;-59
2023/06/29 08:59:22;;;;;;;;;6.20;6.00;;;;;24.49;56.02;99738.63;5097735;28;8857;-59
2023/06/29 09:01:50;;;;;;;;;7.20;6.60;;;;;24.61;55.71;99736.91;5097023;28;8833;-58
2023/06/29 09:04:20;;;;;;;;;4.20;4.20;;;;;24.69;55.40;99742.97;5096883;28;8856;-58
2023/06/29 09:06:47;;;;;;;;;8.60;8.60;;;;;24.78;55.49;99748.97;5096857;28;8995;-58
2023/06/29 09:09:15;;;;;;;;;5.20;5.00;;;;;24.81;55.60;99740.38;5096465;28;8829;-58
2023/06/29 09:11:43;;;;;;;;;8.00;6.60;;;;;24.85;55.59;99736.16;5096465;28;8968;-58
2023/06/29 09:14:12;;;;;;;;;6.00;5.80;;;;;24.83;55.45;99741.00;5097157;28;8845;-59
2023/06/29 09:16:41;;;;;;;;;6.80;6.60;;;;;24.75;55.10;99735.81;5095600;28;8841;-58
2023/06/29 09:19:09;;;;;;;;;6.80;6.80;;;;;24.68;55.50;99733.13;5097231;28;9745;-59
2023/06/29 09:21:37;;;;;;;;;5.80;5.20;;;;;24.63;55.83;99732.94;5096749;28;8922;-58
2023/06/29 09:24:07;;;;;;;;;6.60;5.40;;;;;24.65;55.36;99738.16;5096746;28;8865;-58
2023/06/29 09:26:35;;;;;;;;;5.20;5.00;;;;;24.71;55.07;99732.69;5095670;28;8885;-59
2023/06/29 09:29:04;;;;;;;;;3.00;2.40;;;;;24.80;55.45;99730.56;5096036;28;8881;-58
2023/06/29 09:31:35;;;;;;;;;5.00;5.00;;;;;24.87;54.75;99723.19;5096024;28;8914;-58
2023/06/29 09:34:03;;;;;;;;;6.00;6.00;;;;;24.94;54.66;99726.69;5096305;28;8979;-59
2023/06/29 09:36:31;;;;;;;;;7.00;7.00;;;;;24.99;55.27;99729.56;5095794;28;8865;-58
2023/06/29 09:39:04;;;;;;;;;5.00;5.00;;;;;25.00;54.61;99728.53;5096343;28;8861;-58
2023/06/29 09:41:32;;;;;;;;;5.00;5.00;;;;;24.96;55.00;99724.56;5096046;28;8906;-58
2023/06/29 09:44:00;;;;;;;;;6.40;6.00;;;;;24.92;55.04;99729.63;5096573;28;8845;-59
2023/06/29 09:46:28;;;;;;;;;7.00;6.20;;;;;24.88;55.01;99722.94;5096047;28;8868;-58
2023/06/29 09:48:59;;;;;;;;;6.60;6.00;;;;;24.87;54.98;99728.63;5095996;28;8845;-58
2023/06/29 09:51:30;;;;;;;;;5.40;5.40;;;;;24.81;55.07;99724.03;5095609;28;8951;-58
2023/06/29 09:53:59;;;;;;;;;2.80;2.80;;;;;24.81;54.88;99729.50;5095624;28;8849;-58
2023/06/29 09:56:27;;;;;;;;;5.00;5.00;;;;;24.83;55.17;99717.31;5095544;28;8833;-58
2023/06/29 09:58:55;;;;;;;;;2.40;2.20;;;;;24.89;54.92;99718.34;5094842;28;8841;-59
2023/06/29 10:01:24;;;;;;;;;5.00;5.00;;;;;24.91;54.77;99718.94;5095240;28;8841;-58
2023/06/29 10:03:52;;;;;;;;;5.00;5.00;;;;;24.84;54.96;99718.16;5095286;28;8934;-60
2023/06/29 10:06:21;;;;;;;;;4.20;4.20;;;;;24.76;55.64;99712.94;5095022;28;9015;-58
2023/06/29 10:08:49;;;;;;;;;5.00;5.00;;;;;24.70;55.59;99722.00;5094886;28;8864;-57
2023/06/29 10:11:17;;;;;;;;;5.60;5.60;;;;;24.62;55.71;99719.53;5094892;28;8840;-58
2023/06/29 10:13:45;;;;;;;;;7.00;7.00;;;;;24.58;56.00;99721.84;5094924;28;9023;-58
2023/06/29 10:16:13;;;;;;;;;7.00;6.00;;;;;24.59;55.43;99718.06;5095002;28;8852;-58
2023/06/29 10:18:42;;;;;;;;;6.00;5.80;;;;;24.65;55.81;99717.19;5094217;28;8880;-58
2023/06/29 10:21:10;;;;;;;;;6.80;5.80;;;;;24.78;55.39;99708.09;5094676;28;8938;-58
2023/06/29 10:23:38;;;;;;;;;6.00;6.00;;;;;25.00;54.50;99714.91;5094458;28;9558;-58
2023/06/29 10:26:06;;;;;;;;;4.20;4.20;;;;;25.32;54.11;99702.97;5094551;28;8908;-59
2023/06/29 10:28:34;;;;;;;;;5.00;5.00;;;;;25.64;53.89;99703.50;5093803;28;8848;-58
2023/06/29 10:31:03;;;;;;;;;6.60;6.00;;;;;25.81;53.46;99707.31;5094586;28;8838;-59
2023/06/29 10:33:33;;;;;;;;;5.40;5.20;;;;;25.89;52.70;99701.59;5095435;28;8979;-60
2023/06/29 10:36:01;;;;;;;;;5.00;5.00;;;;;25.93;53.35;99701.97;5094708;28;8857;-59
2023/06/29 10:38:29;;;;;;;;;7.60;6.00;;;;;25.91;53.25;99702.22;5095062;28;8851;-60
2023/06/29 10:40:59;;;;;;;;;6.60;6.40;;;;;25.88;53.52;99699.13;5093914;28;8846;-58
2023/06/29 10:43:27;;;;;;;;;7.00;6.40;;;;;25.86;53.20;99696.56;5094094;28;8875;-60
2023/06/29 10:45:57;;;;;;;;;5.00;5.00;;;;;25.79;53.53;99692.22;5094137;28;8871;-59
2023/06/29 10:48:25;;;;;;;;;6.80;6.40;;;;;25.69;53.51;99695.50;5094589;28;8979;-60
2023/06/29 10:51:15;;;;;;;;;7.00;5.00;;;;;25.58;54.23;99689.09;5094308;28;8845;-60
2023/06/29 10:53:44;;;;;;;;;6.60;6.60;;;;;25.46;54.25;99693.59;5093695;28;8837;-59
2023/06/29 10:56:12;;;;;;;;;7.20;5.40;;;;;25.34;54.51;99689.94;5093838;28;8821;-59
2023/06/29 10:58:40;;;;;;;;;5.00;5.00;;;;;25.18;54.67;99693.19;5094667;28;8853;-60
2023/06/29 11:01:08;;;;;;;;;6.20;6.20;;;;;25.04;54.86;99694.34;5093886;28;8853;-60
2023/06/29 11:03:36;;;;;;;;;8.60;6.60;;;;;24.93;55.14;99686.84;5093398;28;8915;-59
2023/06/29 11:06:06;;;;;;;;;6.00;5.00;;;;;24.81;55.45;99684.00;5093203;28;8861;-60
2023/06/29 11:08:34;;;;;;;;;4.60;4.60;;;;;24.71;55.68;99688.28;5094631;28;8894;-59
2023/06/29 11:11:02;;;;;;;;;8.20;6.40;;;;;24.65;55.73;99683.69;5093363;28;9650;-58
2023/06/29 11:13:32;;;;;;;;;9.00;6.80;;;;;24.63;55.47;99683.91;5094961;28;8837;-57
2023/06/29 11:16:00;;;;;;;;;10.60;10.60;;;;;24.63;56.16;99680.31;5094556;28;8848;-59
2023/06/29 11:18:29;;;;;;;;;14.60;13.00;;;;;24.63;55.20;99678.44;5094716;28;8860;-59
2023/06/29 11:20:58;;;;;;;;;9.60;7.80;;;;;24.66;55.68;99677.19;5094587;28;8903;-59
2023/06/29 11:23:27;;;;;;;;;9.80;9.40;;;;;24.64;55.82;99682.03;5094000;28;8860;-59
2023/06/29 11:25:55;;;;;;;;;7.00;6.00;;;;;24.57;55.66;99671.16;5094582;28;8852;-57
2023/06/29 11:28:23;;;;;;;;;8.20;8.20;;;;;24.54;55.42;99670.72;5093748;28;8845;-60
2023/06/29 11:30:52;;;;;;;;;7.80;6.40;;;;;24.50;55.73;99677.66;5094962;28;8860;-58
2023/06/29 11:33:23;;;;;;;;;9.80;9.20;;;;;24.46;55.57;99684.59;5094176;28;8979;-58
2023/06/29 11:36:01;;;;;;;;;7.00;6.00;;;;;24.42;56.26;99676.00;5088041;28;8926;-58
2023/06/29 11:38:30;;;;;;;;;9.40;9.40;;;;;24.40;55.88;99675.41;5094236;28;8841;-58
2023/06/29 11:40:59;;;;;;;;;9.60;7.40;;;;;24.37;56.19;99675.84;5094567;28;8925;-58
2023/06/29 11:43:27;;;;;;;;;9.00;7.80;;;;;24.36;55.94;99668.69;5094600;28;8857;-58